Terminal Aerodrome Forecast
Issued by NWS

Home | Current Version | Previous Version | Text Only | Print | Product List | Glossary On
Versions: 1 2 3 4 5 6 7 8 9 10 11 12 13
573
FTUS42 KFFC 251129
TAFPDK
TAF
KPDK 251129Z 2512/2612 00000KT P6SM SCT250
     FM251600 06009KT P6SM FEW050 SCT250
     FM260000 00000KT P6SM SKC=

USA.gov is the U.S. government's official web portal to all federal, state and local government web resources and services.